sensor_id;sensor_type;location;lat;lon;timestamp;temperature;humidity
52189;DHT22;38162;45.926;13.608;2022-09-09T00:03:47;21.50;91.90
52189;DHT22;38162;45.926;13.608;2022-09-09T00:07:00;21.50;91.80
52189;DHT22;38162;45.926;13.608;2022-09-09T00:09:27;21.50;91.80
52189;DHT22;38162;45.926;13.608;2022-09-09T00:12:02;21.40;91.80
52189;DHT22;38162;45.926;13.608;2022-09-09T00:14:56;21.40;91.80
52189;DHT22;38162;45.926;13.608;2022-09-09T00:23:12;21.40;91.90
52189;DHT22;38162;45.926;13.608;2022-09-09T00:28:19;21.40;92.00
52189;DHT22;38162;45.926;13.608;2022-09-09T00:30:46;21.40;92.00
52189;DHT22;38162;45.926;13.608;2022-09-09T00:33:17;21.40;92.00
52189;DHT22;38162;45.926;13.608;2022-09-09T00:35:53;21.40;92.00
52189;DHT22;38162;45.926;13.608;2022-09-09T00:38:28;21.40;92.00
52189;DHT22;38162;45.926;13.608;2022-09-09T00:41:03;21.40;92.00
52189;DHT22;38162;45.926;13.608;2022-09-09T00:43:32;21.40;92.00
52189;DHT22;38162;45.926;13.608;2022-09-09T00:54:52;21.40;91.80
52189;DHT22;38162;45.926;13.608;2022-09-09T00:57:25;21.40;91.70
52189;DHT22;38162;45.926;13.608;2022-09-09T01:06:11;21.40;91.10
52189;DHT22;38162;45.926;13.608;2022-09-09T01:14:39;21.40;90.60
52189;DHT22;38162;45.926;13.608;2022-09-09T01:17:16;21.40;90.50
52189;DHT22;38162;45.926;13.608;2022-09-09T01:19:54;21.40;90.40
52189;DHT22;38162;45.926;13.608;2022-09-09T01:28:26;21.40;90.10
52189;DHT22;38162;45.926;13.608;2022-09-09T01:30:55;21.40;90.10
52189;DHT22;38162;45.926;13.608;2022-09-09T01:33:21;21.40;90.10
52189;DHT22;38162;45.926;13.608;2022-09-09T01:35:52;21.30;90.10
52189;DHT22;38162;45.926;13.608;2022-09-09T01:38:22;21.30;90.00
52189;DHT22;38162;45.926;13.608;2022-09-09T01:40:50;21.30;90.00
52189;DHT22;38162;45.926;13.608;2022-09-09T01:43:21;21.30;90.00
52189;DHT22;38162;45.926;13.608;2022-09-09T01:45:50;21.30;90.00
52189;DHT22;38162;45.926;13.608;2022-09-09T01:48:18;21.30;90.00
52189;DHT22;38162;45.926;13.608;2022-09-09T01:50:44;21.30;90.10
52189;DHT22;38162;45.926;13.608;2022-09-09T01:53:11;21.30;90.10
52189;DHT22;38162;45.926;13.608;2022-09-09T01:55:42;21.30;90.10
52189;DHT22;38162;45.926;13.608;2022-09-09T02:06:55;21.40;90.20
52189;DHT22;38162;45.926;13.608;2022-09-09T02:09:24;21.30;90.20
52189;DHT22;38162;45.926;13.608;2022-09-09T02:11:55;21.40;90.20
52189;DHT22;38162;45.926;13.608;2022-09-09T02:14:31;21.30;90.10
52189;DHT22;38162;45.926;13.608;2022-09-09T02:17:07;21.40;90.10
52189;DHT22;38162;45.926;13.608;2022-09-09T02:19:38;21.30;90.10
52189;DHT22;38162;45.926;13.608;2022-09-09T02:22:04;21.30;90.00
52189;DHT22;38162;45.926;13.608;2022-09-09T02:24:34;21.30;90.00
52189;DHT22;38162;45.926;13.608;2022-09-09T02:27:02;21.30;89.90
52189;DHT22;38162;45.926;13.608;2022-09-09T02:29:41;21.30;89.80
52189;DHT22;38162;45.926;13.608;2022-09-09T02:32:12;21.30;89.80
52189;DHT22;38162;45.926;13.608;2022-09-09T02:34:41;21.30;89.70
52189;DHT22;38162;45.926;13.608;2022-09-09T02:37:09;21.30;89.60
52189;DHT22;38162;45.926;13.608;2022-09-09T02:39:36;21.30;89.70
52189;DHT22;38162;45.926;13.608;2022-09-09T02:42:03;21.30;89.70
52189;DHT22;38162;45.926;13.608;2022-09-09T02:44:29;21.30;89.70
52189;DHT22;38162;45.926;13.608;2022-09-09T02:50:06;21.30;89.80
52189;DHT22;38162;45.926;13.608;2022-09-09T02:55:17;21.30;89.80
52189;DHT22;38162;45.926;13.608;2022-09-09T02:57:46;21.20;89.80
52189;DHT22;38162;45.926;13.608;2022-09-09T03:00:13;21.20;89.80
52189;DHT22;38162;45.926;13.608;2022-09-09T03:02:39;21.20;89.90
52189;DHT22;38162;45.926;13.608;2022-09-09T03:05:06;21.20;90.00
52189;DHT22;38162;45.926;13.608;2022-09-09T03:07:32;21.20;90.00
52189;DHT22;38162;45.926;13.608;2022-09-09T03:09:57;21.20;90.00
52189;DHT22;38162;45.926;13.608;2022-09-09T03:12:24;21.20;90.00
52189;DHT22;38162;45.926;13.608;2022-09-09T03:14:49;21.20;90.00
52189;DHT22;38162;45.926;13.608;2022-09-09T03:17:15;21.20;90.10
52189;DHT22;38162;45.926;13.608;2022-09-09T03:19:42;21.20;90.10
52189;DHT22;38162;45.926;13.608;2022-09-09T03:22:10;21.20;90.10
52189;DHT22;38162;45.926;13.608;2022-09-09T03:24:36;21.20;90.40
52189;DHT22;38162;45.926;13.608;2022-09-09T03:27:02;21.20;90.00
52189;DHT22;38162;45.926;13.608;2022-09-09T03:29:28;21.20;90.00
52189;DHT22;38162;45.926;13.608;2022-09-09T03:31:54;21.20;90.00
52189;DHT22;38162;45.926;13.608;2022-09-09T03:34:19;21.10;89.90
52189;DHT22;38162;45.926;13.608;2022-09-09T03:36:45;21.10;89.90
52189;DHT22;38162;45.926;13.608;2022-09-09T03:39:11;21.20;89.90
52189;DHT22;38162;45.926;13.608;2022-09-09T03:41:37;21.10;89.80
52189;DHT22;38162;45.926;13.608;2022-09-09T03:44:03;21.10;89.90
52189;DHT22;38162;45.926;13.608;2022-09-09T03:46:28;21.10;89.90
52189;DHT22;38162;45.926;13.608;2022-09-09T03:48:54;21.10;89.80
52189;DHT22;38162;45.926;13.608;2022-09-09T03:51:20;21.10;89.80
52189;DHT22;38162;45.926;13.608;2022-09-09T03:53:47;21.10;89.70
52189;DHT22;38162;45.926;13.608;2022-09-09T03:56:13;21.10;89.70
52189;DHT22;38162;45.926;13.608;2022-09-09T03:58:39;21.00;89.60
52189;DHT22;38162;45.926;13.608;2022-09-09T04:01:09;21.00;89.60
52189;DHT22;38162;45.926;13.608;2022-09-09T04:03:35;21.00;89.70
52189;DHT22;38162;45.926;13.608;2022-09-09T04:06:02;21.00;89.70
52189;DHT22;38162;45.926;13.608;2022-09-09T04:08:29;21.00;89.70
52189;DHT22;38162;45.926;13.608;2022-09-09T04:10:59;21.00;89.70
52189;DHT22;38162;45.926;13.608;2022-09-09T04:13:26;21.00;89.70
52189;DHT22;38162;45.926;13.608;2022-09-09T04:15:57;20.90;89.70
52189;DHT22;38162;45.926;13.608;2022-09-09T04:18:23;21.00;89.90
52189;DHT22;38162;45.926;13.608;2022-09-09T04:20:50;21.00;90.00
52189;DHT22;38162;45.926;13.608;2022-09-09T04:23:17;21.00;90.00
52189;DHT22;38162;45.926;13.608;2022-09-09T04:25:47;21.00;90.00
52189;DHT22;38162;45.926;13.608;2022-09-09T04:28:14;21.00;90.00
52189;DHT22;38162;45.926;13.608;2022-09-09T04:30:41;21.00;90.00
52189;DHT22;38162;45.926;13.608;2022-09-09T04:33:07;21.00;90.00
52189;DHT22;38162;45.926;13.608;2022-09-09T04:35:33;21.00;90.00
52189;DHT22;38162;45.926;13.608;2022-09-09T04:37:59;21.00;89.90
52189;DHT22;38162;45.926;13.608;2022-09-09T04:40:25;21.00;89.90
52189;DHT22;38162;45.926;13.608;2022-09-09T04:42:51;21.00;89.90
52189;DHT22;38162;45.926;13.608;2022-09-09T04:45:16;21.00;90.00
52189;DHT22;38162;45.926;13.608;2022-09-09T04:47:42;21.00;89.80
52189;DHT22;38162;45.926;13.608;2022-09-09T04:50:08;21.00;89.80
52189;DHT22;38162;45.926;13.608;2022-09-09T04:52:37;21.00;89.60
52189;DHT22;38162;45.926;13.608;2022-09-09T04:55:03;21.00;89.20
52189;DHT22;38162;45.926;13.608;2022-09-09T04:57:29;21.10;88.70
52189;DHT22;38162;45.926;13.608;2022-09-09T04:59:57;21.20;88.60
52189;DHT22;38162;45.926;13.608;2022-09-09T05:02:23;21.20;88.40
52189;DHT22;38162;45.926;13.608;2022-09-09T05:04:49;21.20;88.20
52189;DHT22;38162;45.926;13.608;2022-09-09T05:07:15;21.30;88.10
52189;DHT22;38162;45.926;13.608;2022-09-09T05:09:41;21.20;88.00
52189;DHT22;38162;45.926;13.608;2022-09-09T05:12:06;21.30;87.80
52189;DHT22;38162;45.926;13.608;2022-09-09T05:14:33;21.30;87.40
52189;DHT22;38162;45.926;13.608;2022-09-09T05:17:01;21.40;87.20
52189;DHT22;38162;45.926;13.608;2022-09-09T05:19:27;21.40;87.10
52189;DHT22;38162;45.926;13.608;2022-09-09T05:21:53;21.40;86.80
52189;DHT22;38162;45.926;13.608;2022-09-09T05:24:19;21.40;86.80
52189;DHT22;38162;45.926;13.608;2022-09-09T05:26:44;21.40;86.70
52189;DHT22;38162;45.926;13.608;2022-09-09T05:29:10;21.50;87.00
52189;DHT22;38162;45.926;13.608;2022-09-09T05:31:36;21.40;87.60
52189;DHT22;38162;45.926;13.608;2022-09-09T05:34:02;21.40;87.20
52189;DHT22;38162;45.926;13.608;2022-09-09T05:36:27;21.50;87.20
52189;DHT22;38162;45.926;13.608;2022-09-09T05:38:53;21.50;87.10
52189;DHT22;38162;45.926;13.608;2022-09-09T05:41:19;21.50;87.10
52189;DHT22;38162;45.926;13.608;2022-09-09T05:43:46;21.50;87.30
52189;DHT22;38162;45.926;13.608;2022-09-09T05:46:15;21.50;87.40
52189;DHT22;38162;45.926;13.608;2022-09-09T05:48:43;21.50;87.60
52189;DHT22;38162;45.926;13.608;2022-09-09T05:51:11;21.60;87.60
52189;DHT22;38162;45.926;13.608;2022-09-09T05:53:43;21.60;87.80
52189;DHT22;38162;45.926;13.608;2022-09-09T05:56:15;21.70;86.60
52189;DHT22;38162;45.926;13.608;2022-09-09T05:58:41;21.70;86.50
52189;DHT22;38162;45.926;13.608;2022-09-09T06:01:12;21.80;86.00
52189;DHT22;38162;45.926;13.608;2022-09-09T06:03:43;21.80;85.80
52189;DHT22;38162;45.926;13.608;2022-09-09T06:06:11;21.80;85.80
52189;DHT22;38162;45.926;13.608;2022-09-09T06:08:40;21.80;85.80
52189;DHT22;38162;45.926;13.608;2022-09-09T06:11:08;21.90;85.60
52189;DHT22;38162;45.926;13.608;2022-09-09T06:13:34;21.80;85.50
52189;DHT22;38162;45.926;13.608;2022-09-09T06:16:03;21.80;86.70
52189;DHT22;38162;45.926;13.608;2022-09-09T06:18:29;21.80;86.80
52189;DHT22;38162;45.926;13.608;2022-09-09T06:21:04;21.80;88.20
52189;DHT22;38162;45.926;13.608;2022-09-09T06:23:30;21.70;89.00
52189;DHT22;38162;45.926;13.608;2022-09-09T06:26:11;21.70;89.70
52189;DHT22;38162;45.926;13.608;2022-09-09T06:28:37;21.70;90.10
52189;DHT22;38162;45.926;13.608;2022-09-09T06:31:05;21.60;90.30
52189;DHT22;38162;45.926;13.608;2022-09-09T06:33:38;21.60;90.60
52189;DHT22;38162;45.926;13.608;2022-09-09T06:36:18;21.60;90.80
52189;DHT22;38162;45.926;13.608;2022-09-09T06:38:45;21.60;91.10
52189;DHT22;38162;45.926;13.608;2022-09-09T06:41:12;21.60;91.10
52189;DHT22;38162;45.926;13.608;2022-09-09T06:43:38;21.60;91.10
52189;DHT22;38162;45.926;13.608;2022-09-09T06:46:06;21.60;91.20
52189;DHT22;38162;45.926;13.608;2022-09-09T06:48:33;21.60;91.30
52189;DHT22;38162;45.926;13.608;2022-09-09T06:51:20;21.60;91.50
52189;DHT22;38162;45.926;13.608;2022-09-09T06:53:49;21.60;91.50
52189;DHT22;38162;45.926;13.608;2022-09-09T06:56:27;21.50;91.60
52189;DHT22;38162;45.926;13.608;2022-09-09T06:58:55;21.50;91.70
52189;DHT22;38162;45.926;13.608;2022-09-09T07:01:28;21.50;91.70
52189;DHT22;38162;45.926;13.608;2022-09-09T07:03:56;21.50;91.70
52189;DHT22;38162;45.926;13.608;2022-09-09T07:06:26;21.50;91.70
52189;DHT22;38162;45.926;13.608;2022-09-09T07:08:56;21.50;91.80
52189;DHT22;38162;45.926;13.608;2022-09-09T07:11:25;21.50;91.80
52189;DHT22;38162;45.926;13.608;2022-09-09T07:13:55;21.50;91.70
52189;DHT22;38162;45.926;13.608;2022-09-09T07:16:22;21.50;91.70
52189;DHT22;38162;45.926;13.608;2022-09-09T07:18:52;21.40;91.60
52189;DHT22;38162;45.926;13.608;2022-09-09T07:21:18;21.50;91.60
52189;DHT22;38162;45.926;13.608;2022-09-09T07:23:46;21.40;91.60
52189;DHT22;38162;45.926;13.608;2022-09-09T07:26:17;21.50;91.70
52189;DHT22;38162;45.926;13.608;2022-09-09T07:28:45;21.50;91.30
52189;DHT22;38162;45.926;13.608;2022-09-09T07:31:22;21.50;91.10
52189;DHT22;38162;45.926;13.608;2022-09-09T07:33:48;21.50;91.10
52189;DHT22;38162;45.926;13.608;2022-09-09T07:38:42;21.50;90.70
52189;DHT22;38162;45.926;13.608;2022-09-09T07:41:17;21.50;90.60
52189;DHT22;38162;45.926;13.608;2022-09-09T07:43:44;21.50;90.50
52189;DHT22;38162;45.926;13.608;2022-09-09T07:46:12;21.50;90.60
52189;DHT22;38162;45.926;13.608;2022-09-09T07:48:43;21.50;90.70
52189;DHT22;38162;45.926;13.608;2022-09-09T07:51:11;21.50;90.80
52189;DHT22;38162;45.926;13.608;2022-09-09T07:53:40;21.40;91.00
52189;DHT22;38162;45.926;13.608;2022-09-09T07:56:12;21.40;91.20
52189;DHT22;38162;45.926;13.608;2022-09-09T07:58:39;21.40;91.30
52189;DHT22;38162;45.926;13.608;2022-09-09T08:01:16;21.40;91.50
52189;DHT22;38162;45.926;13.608;2022-09-09T08:03:46;21.40;91.40
52189;DHT22;38162;45.926;13.608;2022-09-09T08:06:13;21.40;91.50
52189;DHT22;38162;45.926;13.608;2022-09-09T08:08:39;21.40;91.60
52189;DHT22;38162;45.926;13.608;2022-09-09T08:11:10;21.40;91.70
52189;DHT22;38162;45.926;13.608;2022-09-09T08:13:37;21.40;91.80
52189;DHT22;38162;45.926;13.608;2022-09-09T08:18:35;21.40;91.70
52189;DHT22;38162;45.926;13.608;2022-09-09T08:21:12;21.40;91.80
52189;DHT22;38162;45.926;13.608;2022-09-09T08:23:40;21.40;91.80
52189;DHT22;38162;45.926;13.608;2022-09-09T08:28:36;21.40;91.90
52189;DHT22;38162;45.926;13.608;2022-09-09T08:31:24;21.40;92.00
52189;DHT22;38162;45.926;13.608;2022-09-09T08:33:50;21.50;92.00
52189;DHT22;38162;45.926;13.608;2022-09-09T08:36:21;21.50;92.00
52189;DHT22;38162;45.926;13.608;2022-09-09T08:38:51;21.40;92.00
52189;DHT22;38162;45.926;13.608;2022-09-09T08:51:49;21.30;92.40
52189;DHT22;38162;45.926;13.608;2022-09-09T08:54:16;21.30;92.60
52189;DHT22;38162;45.926;13.608;2022-09-09T08:56:42;21.30;92.40
52189;DHT22;38162;45.926;13.608;2022-09-09T08:59:12;21.30;92.40
52189;DHT22;38162;45.926;13.608;2022-09-09T09:02:04;21.30;92.50
52189;DHT22;38162;45.926;13.608;2022-09-09T09:05:06;21.20;92.50
52189;DHT22;38162;45.926;13.608;2022-09-09T09:07:39;21.20;92.60
52189;DHT22;38162;45.926;13.608;2022-09-09T09:12:42;21.20;92.90
52189;DHT22;38162;45.926;13.608;2022-09-09T09:15:18;21.10;92.80
52189;DHT22;38162;45.926;13.608;2022-09-09T09:17:45;21.10;92.90
52189;DHT22;38162;45.926;13.608;2022-09-09T09:20:15;21.10;92.80
52189;DHT22;38162;45.926;13.608;2022-09-09T09:22:50;21.10;92.90
52189;DHT22;38162;45.926;13.608;2022-09-09T09:25:20;21.10;92.90
52189;DHT22;38162;45.926;13.608;2022-09-09T09:33:20;21.20;93.40
52189;DHT22;38162;45.926;13.608;2022-09-09T09:35:49;21.10;93.40
52189;DHT22;38162;45.926;13.608;2022-09-09T09:38:18;21.20;93.50
52189;DHT22;38162;45.926;13.608;2022-09-09T09:40:56;21.20;93.50
52189;DHT22;38162;45.926;13.608;2022-09-09T09:43:37;21.20;93.70
52189;DHT22;38162;45.926;13.608;2022-09-09T09:46:19;21.20;93.50
52189;DHT22;38162;45.926;13.608;2022-09-09T09:48:45;21.20;93.40
52189;DHT22;38162;45.926;13.608;2022-09-09T09:51:22;21.20;93.10
52189;DHT22;38162;45.926;13.608;2022-09-09T09:53:49;21.20;93.20
52189;DHT22;38162;45.926;13.608;2022-09-09T09:56:15;21.20;93.10
52189;DHT22;38162;45.926;13.608;2022-09-09T10:01:27;21.20;92.90
52189;DHT22;38162;45.926;13.608;2022-09-09T10:04:14;21.20;92.80
52189;DHT22;38162;45.926;13.608;2022-09-09T10:06:41;21.10;92.40
52189;DHT22;38162;45.926;13.608;2022-09-09T10:12:01;21.00;93.10
52189;DHT22;38162;45.926;13.608;2022-09-09T10:14:52;21.00;93.30
52189;DHT22;38162;45.926;13.608;2022-09-09T10:26:35;21.20;93.80
52189;DHT22;38162;45.926;13.608;2022-09-09T10:40:20;21.40;93.70
52189;DHT22;38162;45.926;13.608;2022-09-09T10:42:46;21.40;93.70
52189;DHT22;38162;45.926;13.608;2022-09-09T10:50:48;21.90;94.00
52189;DHT22;38162;45.926;13.608;2022-09-09T10:53:28;22.00;93.90
52189;DHT22;38162;45.926;13.608;2022-09-09T10:56:08;22.20;93.80
52189;DHT22;38162;45.926;13.608;2022-09-09T10:58:47;22.40;93.60
52189;DHT22;38162;45.926;13.608;2022-09-09T11:01:22;22.60;93.30
52189;DHT22;38162;45.926;13.608;2022-09-09T11:03:55;22.80;92.70
52189;DHT22;38162;45.926;13.608;2022-09-09T11:06:33;22.90;92.30
52189;DHT22;38162;45.926;13.608;2022-09-09T11:09:02;23.00;92.20
52189;DHT22;38162;45.926;13.608;2022-09-09T11:11:51;23.10;91.90
52189;DHT22;38162;45.926;13.608;2022-09-09T11:17:06;23.20;91.70
52189;DHT22;38162;45.926;13.608;2022-09-09T11:24:43;23.20;90.60
52189;DHT22;38162;45.926;13.608;2022-09-09T11:27:29;23.20;90.50
52189;DHT22;38162;45.926;13.608;2022-09-09T11:38:28;23.10;90.30
52189;DHT22;38162;45.926;13.608;2022-09-09T11:41:06;23.10;90.50
52189;DHT22;38162;45.926;13.608;2022-09-09T11:46:06;23.20;89.50
52189;DHT22;38162;45.926;13.608;2022-09-09T11:48:38;23.20;88.60
52189;DHT22;38162;45.926;13.608;2022-09-09T11:51:08;23.30;88.90
52189;DHT22;38162;45.926;13.608;2022-09-09T11:53:55;23.40;88.70
52189;DHT22;38162;45.926;13.608;2022-09-09T11:56:27;23.40;88.40
52189;DHT22;38162;45.926;13.608;2022-09-09T11:59:05;23.50;87.90
52189;DHT22;38162;45.926;13.608;2022-09-09T12:01:38;23.50;87.60
52189;DHT22;38162;45.926;13.608;2022-09-09T12:14:56;23.60;84.40
52189;DHT22;38162;45.926;13.608;2022-09-09T12:17:24;23.60;83.80
52189;DHT22;38162;45.926;13.608;2022-09-09T12:28:15;23.60;82.10
52189;DHT22;38162;45.926;13.608;2022-09-09T12:33:34;23.60;80.90
52189;DHT22;38162;45.926;13.608;2022-09-09T12:36:01;23.60;80.90
52189;DHT22;38162;45.926;13.608;2022-09-09T12:38:36;23.60;81.50
52189;DHT22;38162;45.926;13.608;2022-09-09T12:41:02;23.60;80.80
52189;DHT22;38162;45.926;13.608;2022-09-09T12:43:28;23.60;80.10
52189;DHT22;38162;45.926;13.608;2022-09-09T12:46:08;23.70;80.50
52189;DHT22;38162;45.926;13.608;2022-09-09T12:48:40;23.70;82.10
52189;DHT22;38162;45.926;13.608;2022-09-09T12:51:24;23.80;81.50
52189;DHT22;38162;45.926;13.608;2022-09-09T12:53:51;23.90;80.50
52189;DHT22;38162;45.926;13.608;2022-09-09T12:56:25;23.90;80.20
52189;DHT22;38162;45.926;13.608;2022-09-09T12:58:56;24.00;78.90
52189;DHT22;38162;45.926;13.608;2022-09-09T13:01:27;24.10;78.30
52189;DHT22;38162;45.926;13.608;2022-09-09T13:03:54;24.10;77.90
52189;DHT22;38162;45.926;13.608;2022-09-09T13:06:22;24.20;76.70
52189;DHT22;38162;45.926;13.608;2022-09-09T13:08:52;24.20;74.90
52189;DHT22;38162;45.926;13.608;2022-09-09T13:11:23;24.20;75.60
52189;DHT22;38162;45.926;13.608;2022-09-09T13:13:52;24.20;75.90
52189;DHT22;38162;45.926;13.608;2022-09-09T13:18:45;24.30;73.50
52189;DHT22;38162;45.926;13.608;2022-09-09T13:21:12;24.30;74.10
52189;DHT22;38162;45.926;13.608;2022-09-09T13:23:38;24.40;74.00
52189;DHT22;38162;45.926;13.608;2022-09-09T13:26:06;24.50;72.80
52189;DHT22;38162;45.926;13.608;2022-09-09T13:28:44;24.50;72.10
52189;DHT22;38162;45.926;13.608;2022-09-09T13:31:41;24.60;71.10
52189;DHT22;38162;45.926;13.608;2022-09-09T13:36:54;24.60;70.30
52189;DHT22;38162;45.926;13.608;2022-09-09T13:39:21;24.60;69.70
52189;DHT22;38162;45.926;13.608;2022-09-09T13:41:47;24.60;70.30
52189;DHT22;38162;45.926;13.608;2022-09-09T13:44:25;24.50;70.30
52189;DHT22;38162;45.926;13.608;2022-09-09T13:47:01;24.50;69.50
52189;DHT22;38162;45.926;13.608;2022-09-09T13:49:29;24.40;69.60
52189;DHT22;38162;45.926;13.608;2022-09-09T13:52:24;24.40;70.10
52189;DHT22;38162;45.926;13.608;2022-09-09T13:54:52;24.30;70.80
52189;DHT22;38162;45.926;13.608;2022-09-09T13:57:24;24.20;70.60
52189;DHT22;38162;45.926;13.608;2022-09-09T13:59:51;24.20;71.40
52189;DHT22;38162;45.926;13.608;2022-09-09T14:02:17;24.20;71.00
52189;DHT22;38162;45.926;13.608;2022-09-09T14:04:44;24.10;71.00
52189;DHT22;38162;45.926;13.608;2022-09-09T14:07:17;24.10;71.30
52189;DHT22;38162;45.926;13.608;2022-09-09T14:09:43;24.00;71.80
52189;DHT22;38162;45.926;13.608;2022-09-09T14:12:11;24.00;72.00
52189;DHT22;38162;45.926;13.608;2022-09-09T14:14:37;24.00;72.20
52189;DHT22;38162;45.926;13.608;2022-09-09T14:17:03;24.00;72.30
52189;DHT22;38162;45.926;13.608;2022-09-09T14:19:29;24.00;72.10
52189;DHT22;38162;45.926;13.608;2022-09-09T14:21:56;24.00;72.00
52189;DHT22;38162;45.926;13.608;2022-09-09T14:24:22;24.00;72.20
52189;DHT22;38162;45.926;13.608;2022-09-09T14:26:48;24.00;72.50
52189;DHT22;38162;45.926;13.608;2022-09-09T14:29:14;24.00;72.90
52189;DHT22;38162;45.926;13.608;2022-09-09T14:31:39;24.00;73.10
52189;DHT22;38162;45.926;13.608;2022-09-09T14:34:05;24.00;72.80
52189;DHT22;38162;45.926;13.608;2022-09-09T14:36:31;24.00;72.60
52189;DHT22;38162;45.926;13.608;2022-09-09T14:38:57;24.00;72.20
52189;DHT22;38162;45.926;13.608;2022-09-09T14:41:24;23.90;72.20
52189;DHT22;38162;45.926;13.608;2022-09-09T14:43:51;23.90;72.80
52189;DHT22;38162;45.926;13.608;2022-09-09T14:46:19;23.90;73.60
52189;DHT22;38162;45.926;13.608;2022-09-09T14:48:45;23.90;73.90
52189;DHT22;38162;45.926;13.608;2022-09-09T14:51:31;23.90;74.20
52189;DHT22;38162;45.926;13.608;2022-09-09T14:53:59;23.70;74.60
52189;DHT22;38162;45.926;13.608;2022-09-09T14:56:27;23.70;75.00
52189;DHT22;38162;45.926;13.608;2022-09-09T14:58:55;23.60;75.40
52189;DHT22;38162;45.926;13.608;2022-09-09T17:47:02;21.50;90.90
52189;DHT22;38162;45.926;13.608;2022-09-09T17:49:29;21.50;90.90
52189;DHT22;38162;45.926;13.608;2022-09-09T17:51:55;21.50;90.90
52189;DHT22;38162;45.926;13.608;2022-09-09T17:54:21;21.50;90.90
52189;DHT22;38162;45.926;13.608;2022-09-09T17:56:47;21.40;90.90
52189;DHT22;38162;45.926;13.608;2022-09-09T17:59:14;21.40;90.90
52189;DHT22;38162;45.926;13.608;2022-09-09T18:01:43;21.40;91.00
52189;DHT22;38162;45.926;13.608;2022-09-09T18:04:11;21.40;91.00
52189;DHT22;38162;45.926;13.608;2022-09-09T18:06:50;21.40;91.00
52189;DHT22;38162;45.926;13.608;2022-09-09T18:09:21;21.40;91.00
52189;DHT22;38162;45.926;13.608;2022-09-09T18:11:50;21.40;91.00
52189;DHT22;38162;45.926;13.608;2022-09-09T18:14:19;21.30;90.90
52189;DHT22;38162;45.926;13.608;2022-09-09T18:16:46;21.30;90.90
52189;DHT22;38162;45.926;13.608;2022-09-09T18:19:14;21.30;90.80
52189;DHT22;38162;45.926;13.608;2022-09-09T18:21:41;21.30;90.80
52189;DHT22;38162;45.926;13.608;2022-09-09T18:24:09;21.30;90.70
52189;DHT22;38162;45.926;13.608;2022-09-09T18:26:36;21.20;90.70
52189;DHT22;38162;45.926;13.608;2022-09-09T18:29:07;21.20;90.60
52189;DHT22;38162;45.926;13.608;2022-09-09T18:31:34;21.20;90.50
52189;DHT22;38162;45.926;13.608;2022-09-09T18:34:03;21.20;90.50
52189;DHT22;38162;45.926;13.608;2022-09-09T18:36:33;21.20;90.50
52189;DHT22;38162;45.926;13.608;2022-09-09T18:39:00;21.20;90.50
52189;DHT22;38162;45.926;13.608;2022-09-09T18:41:29;21.20;90.50
52189;DHT22;38162;45.926;13.608;2022-09-09T18:43:58;21.20;90.60
52189;DHT22;38162;45.926;13.608;2022-09-09T18:46:26;21.20;90.60
52189;DHT22;38162;45.926;13.608;2022-09-09T18:48:52;21.20;90.60
52189;DHT22;38162;45.926;13.608;2022-09-09T18:51:23;21.10;90.50
52189;DHT22;38162;45.926;13.608;2022-09-09T18:53:51;21.10;90.40
52189;DHT22;38162;45.926;13.608;2022-09-09T18:56:17;21.10;90.30
52189;DHT22;38162;45.926;13.608;2022-09-09T18:58:44;21.10;90.30
52189;DHT22;38162;45.926;13.608;2022-09-09T19:01:12;21.10;90.40
52189;DHT22;38162;45.926;13.608;2022-09-09T19:03:39;21.10;90.50
52189;DHT22;38162;45.926;13.608;2022-09-09T19:06:11;21.10;90.50
52189;DHT22;38162;45.926;13.608;2022-09-09T19:08:41;21.10;90.50
52189;DHT22;38162;45.926;13.608;2022-09-09T19:11:10;21.10;90.50
52189;DHT22;38162;45.926;13.608;2022-09-09T19:13:36;21.00;90.50
52189;DHT22;38162;45.926;13.608;2022-09-09T19:16:07;21.00;90.80
52189;DHT22;38162;45.926;13.608;2022-09-09T19:18:34;21.00;90.60
52189;DHT22;38162;45.926;13.608;2022-09-09T19:21:23;21.00;90.60
52189;DHT22;38162;45.926;13.608;2022-09-09T19:23:54;21.00;90.60
52189;DHT22;38162;45.926;13.608;2022-09-09T19:26:20;21.00;90.50
52189;DHT22;38162;45.926;13.608;2022-09-09T19:28:47;21.00;90.50
52189;DHT22;38162;45.926;13.608;2022-09-09T19:31:16;21.00;90.40
52189;DHT22;38162;45.926;13.608;2022-09-09T19:33:43;20.90;90.40
52189;DHT22;38162;45.926;13.608;2022-09-09T19:36:13;21.00;90.40
52189;DHT22;38162;45.926;13.608;2022-09-09T19:38:40;20.90;90.40
52189;DHT22;38162;45.926;13.608;2022-09-09T19:41:09;20.90;90.30
52189;DHT22;38162;45.926;13.608;2022-09-09T19:43:35;20.90;90.40
52189;DHT22;38162;45.926;13.608;2022-09-09T19:46:04;20.90;90.40
52189;DHT22;38162;45.926;13.608;2022-09-09T19:48:32;20.90;90.40
52189;DHT22;38162;45.926;13.608;2022-09-09T19:51:03;20.90;90.30
52189;DHT22;38162;45.926;13.608;2022-09-09T19:53:30;20.90;90.20
52189;DHT22;38162;45.926;13.608;2022-09-09T19:55:56;20.90;90.20
52189;DHT22;38162;45.926;13.608;2022-09-09T19:58:22;20.90;90.30
52189;DHT22;38162;45.926;13.608;2022-09-09T20:00:48;20.90;90.30
52189;DHT22;38162;45.926;13.608;2022-09-09T20:03:14;20.90;90.30
52189;DHT22;38162;45.926;13.608;2022-09-09T20:05:40;20.90;90.40
52189;DHT22;38162;45.926;13.608;2022-09-09T20:08:06;20.90;90.40
52189;DHT22;38162;45.926;13.608;2022-09-09T20:10:31;20.90;90.50
52189;DHT22;38162;45.926;13.608;2022-09-09T20:12:57;20.90;90.40
52189;DHT22;38162;45.926;13.608;2022-09-09T20:15:25;20.90;90.40
52189;DHT22;38162;45.926;13.608;2022-09-09T20:17:51;20.90;90.40
52189;DHT22;38162;45.926;13.608;2022-09-09T20:20:17;20.90;90.50
52189;DHT22;38162;45.926;13.608;2022-09-09T20:22:44;20.90;90.50
52189;DHT22;38162;45.926;13.608;2022-09-09T20:25:09;20.90;90.40
52189;DHT22;38162;45.926;13.608;2022-09-09T20:27:35;20.80;90.20
52189;DHT22;38162;45.926;13.608;2022-09-09T20:30:01;20.80;90.10
52189;DHT22;38162;45.926;13.608;2022-09-09T20:32:26;20.80;90.10
52189;DHT22;38162;45.926;13.608;2022-09-09T20:34:53;20.80;90.10
52189;DHT22;38162;45.926;13.608;2022-09-09T20:37:18;20.80;90.10
52189;DHT22;38162;45.926;13.608;2022-09-09T20:39:45;20.80;90.10
52189;DHT22;38162;45.926;13.608;2022-09-09T20:42:11;20.80;90.00
52189;DHT22;38162;45.926;13.608;2022-09-09T20:44:37;20.80;89.80
52189;DHT22;38162;45.926;13.608;2022-09-09T20:47:03;20.70;89.70
52189;DHT22;38162;45.926;13.608;2022-09-09T20:49:31;20.80;89.60
52189;DHT22;38162;45.926;13.608;2022-09-09T20:52:00;20.80;89.50